Time;durP1;ratioP1;P1;durP2;ratioP2;P2;SDS_P1;SDS_P2;PMS_P1;PMS_P2;Temp;Humidity;BMP_temperature;BMP_pressure;BME280_temperature;BME280_humidity;BME280_pressure;Samples;Min_cycle;Max_cycle;Signal;HPM_P1;HPM_P2
2023/11/08 00:00:05;;;;;;;0.55;0.40;;;;;;;14.27;59.97;99476.44;5264649;27;20065;-92
2023/11/08 00:02:31;;;;;;;2.25;0.62;;;;;;;14.30;59.96;99485.91;5264995;27;20027;-92
2023/11/08 00:04:56;;;;;;;3.58;0.65;;;;;;;14.34;59.97;99482.19;5264986;27;20053;-92
2023/11/08 00:07:22;;;;;;;1.20;1.02;;;;;;;14.48;59.98;99485.00;5263856;27;25354;-92
2023/11/08 00:09:47;;;;;;;0.65;0.52;;;;;;;14.53;59.97;99490.00;5265642;27;20113;-92
2023/11/08 00:12:12;;;;;;;2.33;2.12;;;;;;;14.49;59.98;99491.06;5249434;27;27251;-91
2023/11/08 00:14:41;;;;;;;0.80;0.80;;;;;;;14.40;59.96;99489.72;5268011;27;35490;-92
2023/11/08 00:17:06;;;;;;;1.67;1.37;;;;;;;14.59;59.98;99474.78;5257420;27;20021;-92
2023/11/08 00:19:31;;;;;;;4.30;1.00;;;;;;;14.49;59.97;99478.81;5258290;27;20133;-91
2023/11/08 00:22:00;;;;;;;2.40;1.65;;;;;;;14.52;59.97;99470.81;5254139;27;24762;-91
2023/11/08 00:24:28;;;;;;;1.35;1.27;;;;;;;14.41;59.97;99468.69;5271097;27;20056;-90
2023/11/08 00:26:54;;;;;;;1.87;1.27;;;;;;;14.37;59.96;99469.78;5265173;27;20080;-91
2023/11/08 00:29:19;;;;;;;1.12;1.10;;;;;;;14.38;59.96;99466.25;5255870;27;20119;-91
2023/11/08 00:31:45;;;;;;;2.75;1.80;;;;;;;14.48;59.98;99474.53;5264247;27;20056;-92
2023/11/08 00:34:13;;;;;;;0.65;0.65;;;;;;;14.46;59.97;99470.28;5281792;27;20072;-91
2023/11/08 00:36:38;;;;;;;0.68;0.60;;;;;;;14.39;59.96;99459.22;5266332;27;20067;-91
2023/11/08 00:39:07;;;;;;;1.58;1.48;;;;;;;14.30;59.95;99459.72;5282423;27;21772;-92
2023/11/08 00:41:34;;;;;;;0.52;0.20;;;;;;;14.32;59.96;99458.72;5282920;27;20110;-92
2023/11/08 00:44:00;;;;;;;2.20;2.03;;;;;;;14.43;59.97;99447.69;5286090;27;20049;-91
2023/11/08 00:46:26;;;;;;;1.37;1.27;;;;;;;14.49;59.97;99431.69;5292971;27;20032;-90
2023/11/08 00:48:51;;;;;;;6.70;1.90;;;;;;;14.37;59.96;99446.22;5272741;27;20057;-91
2023/11/08 00:51:19;;;;;;;1.67;1.58;;;;;;;14.30;59.96;99436.16;5265384;27;20072;-92
2023/11/08 00:53:45;;;;;;;1.62;1.52;;;;;;;14.29;59.96;99442.31;5264701;27;20053;-93
2023/11/08 00:56:16;;;;;;;2.12;0.88;;;;;;;14.50;59.97;99430.75;5284263;27;20083;-92
2023/11/08 00:58:41;;;;;;;3.37;2.00;;;;;;;14.19;59.96;99435.84;5266560;27;20077;-92
2023/11/08 01:01:07;;;;;;;1.70;1.23;;;;;;;14.09;59.96;99436.34;5265060;27;20245;-92
2023/11/08 01:03:32;;;;;;;2.15;1.00;;;;;;;13.96;59.95;99435.28;5282231;27;20068;-92
2023/11/08 01:05:58;;;;;;;1.95;1.65;;;;;;;14.04;59.95;99433.12;5282242;27;20113;-93
2023/11/08 01:08:23;;;;;;;1.25;1.15;;;;;;;14.14;59.95;99434.31;5268216;27;20118;-94
2023/11/08 01:10:51;;;;;;;0.65;0.43;;;;;;;14.20;59.96;99429.72;5264875;27;20057;-92
2023/11/08 01:13:17;;;;;;;1.25;1.15;;;;;;;14.11;59.95;99434.50;5283465;27;20022;-92
2023/11/08 01:15:42;;;;;;;0.80;0.80;;;;;;;14.12;59.95;99427.47;5283083;27;20057;-93
2023/11/08 01:18:11;;;;;;;0.65;0.50;;;;;;;14.16;59.95;99431.63;5283607;27;20088;-93
2023/11/08 01:20:37;;;;;;;0.32;0.32;;;;;;;14.24;59.95;99436.50;5267488;27;20052;-92
2023/11/08 01:23:03;;;;;;;2.17;2.03;;;;;;;14.30;59.96;99429.16;5264416;27;20406;-92
2023/11/08 01:25:29;;;;;;;0.10;0.10;;;;;;;14.22;59.96;99433.94;5264284;27;20159;-92
2023/11/08 01:27:54;;;;;;;0.40;0.40;;;;;;;14.19;59.96;99436.69;5265588;27;20440;-92
2023/11/08 01:30:19;;;;;;;1.15;1.15;;;;;;;14.50;59.98;99428.13;5298146;27;25458;-91
2023/11/08 01:32:45;;;;;;;2.00;1.55;;;;;;;14.35;59.97;99429.75;5299460;27;20041;-92
2023/11/08 01:35:13;;;;;;;1.50;1.40;;;;;;;14.12;59.95;99428.31;5299520;27;27925;-92
2023/11/08 01:37:42;;;;;;;1.45;1.35;;;;;;;14.24;59.95;99429.47;5282264;27;20065;-92
2023/11/08 01:40:09;;;;;;;0.98;0.98;;;;;;;14.17;59.95;99428.09;5301116;27;20053;-90
2023/11/08 01:42:35;;;;;;;5.68;1.83;;;;;;;14.18;59.96;99424.53;5301191;27;20443;-91
2023/11/08 01:45:04;;;;;;;5.87;2.05;;;;;;;14.32;59.96;99416.81;5300294;27;20081;-91
2023/11/08 01:47:30;;;;;;;0.85;0.85;;;;;;;14.18;59.96;99423.69;5303004;26;20060;-92
2023/11/08 01:49:55;;;;;;;1.77;1.67;;;;;;;14.21;59.96;99437.50;5300434;27;20416;-92
2023/11/08 01:52:22;;;;;;;2.60;0.60;;;;;;;14.42;59.97;99441.59;5281859;27;20101;-92
2023/11/08 01:54:49;;;;;;;12.35;2.78;;;;;;;14.37;59.97;99448.00;5300384;27;20053;-89
2023/11/08 01:57:17;;;;;;;0.52;0.52;;;;;;;14.23;59.96;99464.44;5281400;27;20075;-89
2023/11/08 01:59:43;;;;;;;0.68;0.65;;;;;;;13.61;59.92;99473.66;5280963;27;20059;-87
2023/11/08 02:02:09;;;;;;;0.32;0.32;;;;;;;13.10;59.89;99487.41;5299194;27;20049;-88
2023/11/08 02:04:35;;;;;;;0.00;0.00;;;;;;;12.56;59.87;99476.78;5298689;27;32231;-87
2023/11/08 02:07:01;;;;;;;0.80;0.80;;;;;;;12.01;59.83;99487.91;5299568;27;20075;-88
2023/11/08 02:09:27;;;;;;;1.23;1.12;;;;;;;11.72;59.82;99482.09;5281535;27;20417;-88
2023/11/08 02:11:53;;;;;;;0.37;0.35;;;;;;;11.55;59.81;99484.53;5280439;27;20061;-89
2023/11/08 02:14:18;;;;;;;4.57;1.60;;;;;;;11.44;59.80;99484.97;5299032;27;20076;-89
2023/11/08 02:16:44;;;;;;;0.00;0.00;;;;;;;11.38;59.81;99475.66;5282002;27;20117;-89
2023/11/08 02:19:10;;;;;;;0.37;0.37;;;;;;;11.18;59.79;99479.94;5283543;27;20101;-89
2023/11/08 02:21:35;;;;;;;12.65;2.58;;;;;;;10.90;59.78;99494.03;5298921;27;30293;-87
2023/11/08 02:24:17;;;;;;;0.40;0.40;;;;;;;11.04;59.78;99486.50;5281850;27;20116;-88
2023/11/08 02:26:45;;;;;;;1.67;1.20;;;;;;;10.96;59.78;99492.94;5299821;27;20061;-86
2023/11/08 02:29:10;;;;;;;1.02;0.47;;;;;;;10.93;59.78;99495.66;5308848;26;20057;-88
2023/11/08 02:31:36;;;;;;;0.00;0.00;;;;;;;10.98;59.78;99496.31;5283708;27;32020;-88
2023/11/08 02:34:01;;;;;;;10.65;0.47;;;;;;;10.85;59.78;99506.34;5285617;27;20076;-89
2023/11/08 02:36:26;;;;;;;0.03;0.03;;;;;;;10.88;59.78;99507.97;5285105;27;20088;-89
2023/11/08 02:38:52;;;;;;;1.55;1.48;;;;;;;10.76;59.77;99511.88;5284349;27;32216;-89
2023/11/08 02:41:17;;;;;;;0.30;0.30;;;;;;;10.90;59.78;99508.78;5285020;27;29100;-89
2023/11/08 02:43:43;;;;;;;2.45;0.85;;;;;;;10.93;59.78;99503.47;5284726;27;20096;-90
2023/11/08 02:46:09;;;;;;;0.10;0.10;;;;;;;10.86;59.78;99512.38;5285352;27;20065;-89
2023/11/08 02:48:34;;;;;;;0.00;0.00;;;;;;;10.99;59.79;99524.06;5285224;27;20056;-89
2023/11/08 02:51:00;;;;;;;0.37;0.37;;;;;;;10.96;59.78;99529.37;5285747;27;24527;-90
2023/11/08 02:53:25;;;;;;;0.00;0.00;;;;;;;10.80;59.77;99525.62;5286187;27;20080;-89
2023/11/08 02:55:50;;;;;;;0.00;0.00;;;;;;;10.76;59.77;99523.16;5286761;27;20130;-90
2023/11/08 02:58:16;;;;;;;0.17;0.17;;;;;;;10.70;59.77;99523.38;5318129;26;20056;-89
2023/11/08 03:00:41;;;;;;;1.90;1.23;;;;;;;10.76;59.77;99530.97;5296028;27;20048;-90
2023/11/08 03:03:07;;;;;;;0.00;0.00;;;;;;;10.74;59.77;99534.53;5286537;27;20072;-88
2023/11/08 03:05:32;;;;;;;0.10;0.10;;;;;;;10.87;59.77;99540.12;5286640;27;20076;-90
2023/11/08 03:07:58;;;;;;;0.00;0.00;;;;;;;10.59;59.76;99551.53;5286597;27;20625;-90
2023/11/08 03:10:24;;;;;;;0.00;0.00;;;;;;;10.57;59.76;99558.53;5285747;27;28361;-88
2023/11/08 03:12:54;;;;;;;0.00;0.00;;;;;;;10.61;59.76;99561.88;5286438;27;20112;-88
2023/11/08 03:15:23;;;;;;;0.00;0.00;;;;;;;10.74;59.76;99576.19;5288160;27;20026;-87
2023/11/08 03:17:50;;;;;;;0.10;0.10;;;;;;;10.67;59.76;99580.75;5287534;27;21132;-89
2023/11/08 03:20:16;;;;;;;0.00;0.00;;;;;;;10.71;59.77;99584.94;5287057;27;20069;-90
2023/11/08 03:22:42;;;;;;;0.00;0.00;;;;;;;10.74;59.77;99576.19;5287100;27;20065;-89
2023/11/08 03:25:11;;;;;;;0.15;0.10;;;;;;;10.75;59.77;99577.88;5304079;27;20108;-89
2023/11/08 03:27:39;;;;;;;0.00;0.00;;;;;;;10.72;59.77;99571.03;5287369;27;20171;-88
2023/11/08 03:30:06;;;;;;;0.00;0.00;;;;;;;10.88;59.78;99565.25;5282390;27;20061;-88
2023/11/08 03:32:33;;;;;;;0.17;0.17;;;;;;;10.75;59.76;99565.72;5282793;27;20057;-89
2023/11/08 03:34:58;;;;;;;0.00;0.00;;;;;;;10.76;59.77;99569.16;5282871;27;20072;-88
2023/11/08 03:37:24;;;;;;;0.00;0.00;;;;;;;10.84;59.77;99568.88;5282534;27;20053;-88
2023/11/08 03:39:50;;;;;;;0.00;0.00;;;;;;;10.85;59.77;99575.78;5284708;27;20059;-88
2023/11/08 03:42:16;;;;;;;0.00;0.00;;;;;;;10.84;59.77;99569.72;5282829;27;20087;-88
2023/11/08 03:44:41;;;;;;;0.55;0.55;;;;;;;10.87;59.77;99579.19;5281647;27;20116;-88
2023/11/08 03:47:07;;;;;;;1.45;0.47;;;;;;;10.83;59.77;99575.00;5282711;27;25541;-88
2023/11/08 03:49:35;;;;;;;0.00;0.00;;;;;;;10.75;59.76;99580.47;5287409;27;20100;-88
2023/11/08 03:52:02;;;;;;;0.03;0.03;;;;;;;10.83;59.77;99588.00;5282547;27;20375;-88
2023/11/08 03:54:27;;;;;;;0.20;0.20;;;;;;;10.88;59.78;99588.69;5300221;27;20076;-87
2023/11/08 03:56:53;;;;;;;1.55;1.45;;;;;;;10.86;59.78;99590.50;5281736;27;20058;-88
2023/11/08 03:59:18;;;;;;;0.00;0.00;;;;;;;10.81;59.77;99595.03;5281767;27;20037;-88
2023/11/08 04:01:46;;;;;;;0.93;0.85;;;;;;;10.76;59.77;99598.66;5280921;27;20052;-88
2023/11/08 04:04:11;;;;;;;0.00;0.00;;;;;;;10.76;59.77;99601.25;5263816;27;20061;-88
2023/11/08 04:06:37;;;;;;;1.00;0.45;;;;;;;10.85;59.78;99602.66;5281934;27;20100;-87
2023/11/08 04:09:04;;;;;;;0.10;0.10;;;;;;;10.75;59.77;99598.72;5283848;27;24795;-86
2023/11/08 04:11:30;;;;;;;0.00;0.00;;;;;;;10.77;59.78;99602.09;5299926;27;20060;-88
2023/11/08 04:13:55;;;;;;;0.00;0.00;;;;;;;10.91;59.77;99599.88;5281630;27;20083;-88
2023/11/08 04:16:21;;;;;;;0.37;0.37;;;;;;;10.79;59.77;99605.50;5281574;27;20105;-87
2023/11/08 04:18:46;;;;;;;0.15;0.15;;;;;;;10.91;59.77;99609.44;5280626;27;29105;-87
2023/11/08 04:21:12;;;;;;;0.08;0.08;;;;;;;10.91;59.77;99610.28;5264232;27;20068;-87
2023/11/08 04:23:37;;;;;;;0.00;0.00;;;;;;;10.86;59.78;99609.56;5281369;27;20181;-88
2023/11/08 04:26:06;;;;;;;0.00;0.00;;;;;;;10.68;59.76;99624.12;5281649;27;20104;-87
2023/11/08 04:28:32;;;;;;;0.00;0.00;;;;;;;10.69;59.76;99623.22;5269691;27;20057;-88
2023/11/08 04:30:58;;;;;;;0.32;0.25;;;;;;;10.72;59.77;99630.91;5284964;27;20068;-88
2023/11/08 04:33:23;;;;;;;0.00;0.00;;;;;;;10.74;59.77;99638.66;5285270;27;20190;-88
2023/11/08 04:35:49;;;;;;;0.10;0.10;;;;;;;10.89;59.78;99626.87;5285809;27;20061;-89
2023/11/08 04:38:15;;;;;;;0.22;0.22;;;;;;;10.77;59.78;99636.81;5285506;27;20087;-88
2023/11/08 04:40:40;;;;;;;0.20;0.20;;;;;;;10.77;59.78;99631.59;5285851;27;20353;-87
2023/11/08 04:43:06;;;;;;;0.00;0.00;;;;;;;10.73;59.77;99631.75;5284922;27;20080;-88
2023/11/08 04:45:31;;;;;;;0.00;0.00;;;;;;;10.56;59.76;99629.72;5285580;27;20334;-88
2023/11/08 04:47:57;;;;;;;0.00;0.00;;;;;;;10.57;59.77;99636.63;5303589;27;20063;-88
2023/11/08 04:50:22;;;;;;;0.00;0.00;;;;;;;10.54;59.75;99626.31;5303298;27;23439;-88
2023/11/08 04:52:47;;;;;;;0.00;0.00;;;;;;;10.56;59.76;99628.88;5306729;27;20083;-88
2023/11/08 04:55:13;;;;;;;0.08;0.08;;;;;;;10.56;59.76;99636.69;5320927;27;20096;-88
2023/11/08 04:57:39;;;;;;;0.00;0.00;;;;;;;10.58;59.76;99632.28;5284582;27;20069;-89
2023/11/08 05:00:05;;;;;;;0.20;0.20;;;;;;;10.51;59.76;99631.62;5304352;27;24161;-86
2023/11/08 05:02:33;;;;;;;0.00;0.00;;;;;;;10.47;59.76;99635.25;5284735;27;20065;-88
2023/11/08 05:04:58;;;;;;;0.00;0.00;;;;;;;10.37;59.75;99631.22;5304237;27;20078;-87
2023/11/08 05:07:25;;;;;;;0.10;0.10;;;;;;;10.33;59.75;99633.09;5285316;27;20061;-89
2023/11/08 05:09:53;;;;;;;0.00;0.00;;;;;;;10.28;59.74;99636.75;5285820;27;20124;-88
2023/11/08 05:12:19;;;;;;;0.30;0.30;;;;;;;10.23;59.73;99642.09;5285676;27;20057;-88
2023/11/08 05:14:44;;;;;;;0.10;0.10;;;;;;;10.18;59.74;99638.78;5285411;27;20056;-88
2023/11/08 05:17:10;;;;;;;0.00;0.00;;;;;;;10.10;59.74;99645.94;5287662;27;20429;-87
2023/11/08 05:19:35;;;;;;;0.00;0.00;;;;;;;9.99;59.73;99635.91;5302939;27;22223;-86
2023/11/08 05:22:01;;;;;;;0.82;0.52;;;;;;;9.96;59.73;99641.19;5303999;27;20451;-88
2023/11/08 05:24:27;;;;;;;0.10;0.10;;;;;;;10.06;59.73;99645.19;5303464;27;32043;-89
2023/11/08 05:26:53;;;;;;;0.03;0.03;;;;;;;10.11;59.74;99639.84;5303765;27;20041;-88
2023/11/08 05:29:18;;;;;;;0.00;0.00;;;;;;;10.05;59.73;99634.84;5281436;27;20061;-89
2023/11/08 05:31:44;;;;;;;0.00;0.00;;;;;;;10.10;59.74;99643.34;5293483;27;20061;-88
2023/11/08 05:34:10;;;;;;;0.30;0.30;;;;;;;10.01;59.72;99652.31;5302717;27;20112;-88
2023/11/08 05:36:36;;;;;;;0.00;0.00;;;;;;;9.99;59.73;99659.31;5282041;27;20393;-89
2023/11/08 05:39:02;;;;;;;0.15;0.15;;;;;;;10.01;59.72;99654.91;5300527;27;20057;-89
2023/11/08 05:41:27;;;;;;;0.25;0.15;;;;;;;9.93;59.72;99663.81;5282297;27;20064;-90
2023/11/08 05:43:57;;;;;;;0.00;0.00;;;;;;;10.03;59.73;99670.47;5299874;27;23602;-89
2023/11/08 05:46:24;;;;;;;0.00;0.00;;;;;;;10.03;59.73;99673.91;5303486;27;20053;-89
2023/11/08 05:48:50;;;;;;;0.22;0.22;;;;;;;9.98;59.73;99675.81;5302424;27;20054;-90
2023/11/08 05:51:15;;;;;;;0.15;0.15;;;;;;;9.94;59.73;99676.81;5300595;27;20064;-90
2023/11/08 05:53:40;;;;;;;0.20;0.15;;;;;;;10.00;59.73;99670.56;5282144;27;20045;-90
2023/11/08 05:56:06;;;;;;;0.00;0.00;;;;;;;10.00;59.73;99675.75;5299673;27;20449;-91
2023/11/08 05:58:35;;;;;;;0.03;0.03;;;;;;;10.04;59.73;99688.63;5282566;27;20304;-91
2023/11/08 06:01:01;;;;;;;0.20;0.20;;;;;;;9.87;59.73;99690.88;5300642;27;20069;-91
2023/11/08 06:03:27;;;;;;;0.32;0.32;;;;;;;9.88;59.73;99696.91;5300518;27;20064;-90
2023/11/08 06:05:52;;;;;;;3.92;0.45;;;;;;;9.84;59.72;99707.41;5299295;27;20064;-89
2023/11/08 06:08:17;;;;;;;0.00;0.00;;;;;;;9.94;59.73;99705.41;5300069;27;20113;-90
2023/11/08 06:10:43;;;;;;;0.00;0.00;;;;;;;9.85;59.72;99703.91;5298587;27;34123;-91
2023/11/08 06:13:09;;;;;;;0.00;0.00;;;;;;;9.91;59.72;99717.63;5299813;27;20056;-91
2023/11/08 06:15:34;;;;;;;1.35;0.85;;;;;;;9.87;59.72;99716.00;5302471;27;20170;-92
2023/11/08 06:18:00;;;;;;;0.20;0.20;;;;;;;9.91;59.72;99731.47;5281625;27;20172;-90
2023/11/08 06:20:25;;;;;;;0.35;0.35;;;;;;;9.92;59.72;99727.13;5299946;27;20057;-92
2023/11/08 06:22:51;;;;;;;0.00;0.00;;;;;;;9.96;59.73;99740.00;5281406;27;20101;-91
2023/11/08 06:25:16;;;;;;;0.10;0.10;;;;;;;10.18;59.74;99741.97;5300811;27;20057;-91
2023/11/08 06:27:42;;;;;;;0.13;0.13;;;;;;;10.29;59.74;99730.34;5301577;27;20065;-92
2023/11/08 06:30:08;;;;;;;0.00;0.00;;;;;;;10.30;59.74;99739.84;5314286;27;20786;-92
2023/11/08 06:32:33;;;;;;;0.28;0.25;;;;;;;10.35;59.75;99745.75;5319529;27;20059;-91
2023/11/08 06:35:00;;;;;;;0.05;0.05;;;;;;;10.32;59.75;99747.63;5319076;27;20057;-91
2023/11/08 06:37:29;;;;;;;0.00;0.00;;;;;;;10.40;59.75;99766.44;5320550;27;20362;-91
2023/11/08 06:39:55;;;;;;;0.00;0.00;;;;;;;10.29;59.74;99765.94;5300985;27;20066;-91
2023/11/08 06:42:21;;;;;;;0.00;0.00;;;;;;;10.38;59.75;99774.28;5301066;27;20021;-90
2023/11/08 06:44:47;;;;;;;2.28;0.70;;;;;;;10.50;59.76;99775.69;5300982;27;20383;-91
2023/11/08 06:47:12;;;;;;;0.90;0.88;;;;;;;10.49;59.75;99779.19;5319888;27;20077;-90
2023/11/08 06:49:38;;;;;;;0.25;0.25;;;;;;;10.50;59.76;99783.47;5300847;27;20060;-91
2023/11/08 06:52:03;;;;;;;0.20;0.20;;;;;;;10.29;59.74;99790.19;5324588;27;20045;-91
2023/11/08 06:54:30;;;;;;;0.00;0.00;;;;;;;10.32;59.75;99789.25;5309454;27;20069;-91
2023/11/08 06:56:56;;;;;;;0.20;0.13;;;;;;;10.56;59.76;99795.44;5301079;27;20061;-92
2023/11/08 06:59:21;;;;;;;0.03;0.00;;;;;;;10.56;59.76;99806.72;5300748;27;20087;-90
2023/11/08 07:01:47;;;;;;;0.15;0.15;;;;;;;10.63;59.77;99795.19;5299574;27;20083;-92
2023/11/08 07:04:13;;;;;;;0.00;0.00;;;;;;;10.69;59.76;99805.44;5317866;27;20091;-91
2023/11/08 07:06:39;;;;;;;0.40;0.40;;;;;;;10.81;59.77;99800.72;5298556;27;20077;-91
2023/11/08 07:09:04;;;;;;;0.20;0.20;;;;;;;10.80;59.77;99818.09;5317916;27;20072;-92
2023/11/08 07:11:30;;;;;;;0.00;0.00;;;;;;;10.78;59.77;99817.31;5320002;27;20050;-91
2023/11/08 07:13:56;;;;;;;0.25;0.20;;;;;;;10.57;59.76;99829.22;5298817;27;29899;-91
2023/11/08 07:16:21;;;;;;;0.00;0.00;;;;;;;10.65;59.76;99831.63;5299929;27;20057;-91
2023/11/08 07:18:46;;;;;;;0.20;0.20;;;;;;;10.53;59.75;99834.59;5317783;27;20473;-90
2023/11/08 07:21:19;;;;;;;0.03;0.03;;;;;;;10.64;59.77;99835.09;5317768;27;20076;-92
2023/11/08 07:23:44;;;;;;;0.00;0.00;;;;;;;10.39;59.75;99837.59;5299510;27;20034;-91
2023/11/08 07:26:13;;;;;;;0.17;0.17;;;;;;;10.40;59.75;99847.94;5299450;27;20057;-91
2023/11/08 07:28:39;;;;;;;0.00;0.00;;;;;;;10.51;59.76;99850.25;5308340;26;20072;-91
2023/11/08 07:31:05;;;;;;;0.00;0.00;;;;;;;10.53;59.75;99843.25;5309703;26;20881;-91
2023/11/08 07:33:30;;;;;;;0.05;0.05;;;;;;;10.37;59.75;99842.00;5306745;26;20071;-91
2023/11/08 07:35:55;;;;;;;0.00;0.00;;;;;;;10.34;59.75;99844.69;5305638;26;31169;-91
2023/11/08 07:38:21;;;;;;;0.00;0.00;;;;;;;10.43;59.75;99850.50;5307071;26;20095;-91
2023/11/08 07:40:46;;;;;;;0.55;0.32;;;;;;;10.55;59.75;99845.78;5309314;26;20582;-91
2023/11/08 07:43:13;;;;;;;0.75;0.43;;;;;;;10.39;59.75;99854.06;5348563;26;21183;-91
2023/11/08 07:45:38;;;;;;;0.00;0.00;;;;;;;10.52;59.76;99845.91;5308533;26;20080;-91
2023/11/08 07:48:04;;;;;;;0.00;0.00;;;;;;;10.58;59.76;99850.91;5306682;26;20164;-91
2023/11/08 07:50:29;;;;;;;0.00;0.00;;;;;;;10.59;59.76;99842.19;5307210;26;20071;-90
2023/11/08 07:52:54;;;;;;;0.00;0.00;;;;;;;10.65;59.76;99839.44;5325564;26;20397;-91
2023/11/08 07:55:20;;;;;;;0.00;0.00;;;;;;;10.83;59.77;99840.59;5325920;26;20073;-91
2023/11/08 07:57:45;;;;;;;0.00;0.00;;;;;;;10.95;59.78;99832.41;5307323;26;20060;-90
2023/11/08 08:00:16;;;;;;;0.10;0.10;;;;;;;10.82;59.77;99831.91;5306963;26;20219;-90
2023/11/08 08:02:43;;;;;;;0.00;0.00;;;;;;;10.92;59.77;99829.91;5316303;26;20025;-90
2023/11/08 08:05:12;;;;;;;0.00;0.00;;;;;;;11.01;59.79;99827.84;5334087;26;20055;-91
2023/11/08 08:07:37;;;;;;;0.00;0.00;;;;;;;11.07;59.79;99822.41;5328680;26;20119;-90
2023/11/08 08:10:03;;;;;;;0.00;0.00;;;;;;;11.15;59.79;99827.41;5306837;26;20072;-90
2023/11/08 08:12:30;;;;;;;0.00;0.00;;;;;;;11.25;59.80;99831.38;5306339;26;20100;-90
2023/11/08 08:14:56;;;;;;;0.00;0.00;;;;;;;11.39;59.81;99820.50;5306720;26;20061;-90
2023/11/08 08:17:21;;;;;;;0.00;0.00;;;;;;;11.45;59.80;99835.06;5345113;26;20056;-89
2023/11/08 08:19:47;;;;;;;0.00;0.00;;;;;;;11.34;59.80;99835.41;5324762;26;20063;-90
2023/11/08 08:22:14;;;;;;;0.25;0.25;;;;;;;11.27;59.80;99823.50;5309836;26;20091;-90
2023/11/08 08:24:39;;;;;;;0.00;0.00;;;;;;;11.20;59.79;99830.69;5315367;26;20133;-91
2023/11/08 08:27:05;;;;;;;0.52;0.30;;;;;;;11.29;59.79;99832.13;5325705;26;20400;-90
2023/11/08 08:29:31;;;;;;;0.00;0.00;;;;;;;11.48;59.81;99825.41;5327235;26;20087;-91
2023/11/08 08:31:57;;;;;;;0.10;0.10;;;;;;;11.51;59.80;99830.50;5325079;26;20060;-91
2023/11/08 08:34:23;;;;;;;0.10;0.10;;;;;;;11.50;59.81;99844.44;5325422;26;20112;-90
2023/11/08 08:36:48;;;;;;;0.00;0.00;;;;;;;11.58;59.81;99828.53;5306721;26;20105;-89
2023/11/08 08:39:16;;;;;;;0.00;0.00;;;;;;;11.48;59.81;99834.97;5306028;26;29100;-89
2023/11/08 08:41:43;;;;;;;0.55;0.40;;;;;;;11.45;59.80;99820.28;5325802;26;20048;-89
2023/11/08 08:44:09;;;;;;;0.73;0.32;;;;;;;11.56;59.81;99833.78;5288793;26;20071;-90
2023/11/08 08:46:34;;;;;;;0.00;0.00;;;;;;;11.61;59.81;99828.44;5305658;26;25275;-91
2023/11/08 08:49:00;;;;;;;0.00;0.00;;;;;;;11.64;59.81;99825.72;5325544;26;20071;-89
2023/11/08 08:51:26;;;;;;;5.43;1.27;;;;;;;11.84;59.83;99835.50;5306641;26;20728;-89
2023/11/08 08:53:52;;;;;;;0.80;0.45;;;;;;;11.76;59.83;99845.28;5325110;26;20107;-89
2023/11/08 08:56:17;;;;;;;0.30;0.30;;;;;;;11.73;59.82;99841.03;5324811;26;20056;-89
2023/11/08 08:58:43;;;;;;;0.00;0.00;;;;;;;11.72;59.82;99828.91;5325295;26;20131;-88
2023/11/08 09:01:12;;;;;;;0.00;0.00;;;;;;;11.66;59.82;99831.72;5306699;26;20461;-89
2023/11/08 09:03:37;;;;;;;0.00;0.00;;;;;;;11.77;59.83;99836.56;5306971;26;20056;-90
2023/11/08 09:06:04;;;;;;;0.00;0.00;;;;;;;11.87;59.83;99844.03;5324646;26;20606;-89
2023/11/08 09:08:31;;;;;;;0.00;0.00;;;;;;;11.86;59.83;99837.12;5309764;26;20063;-89
2023/11/08 09:10:56;;;;;;;0.00;0.00;;;;;;;11.86;59.83;99846.72;5306209;26;20748;-89
2023/11/08 09:13:22;;;;;;;0.00;0.00;;;;;;;12.07;59.84;99840.72;5324597;26;20076;-90
2023/11/08 09:15:47;;;;;;;0.00;0.00;;;;;;;11.99;59.84;99843.59;5305439;26;26117;-89
2023/11/08 09:18:12;;;;;;;0.20;0.10;;;;;;;12.05;59.84;99841.66;5305848;26;26225;-90
2023/11/08 09:20:38;;;;;;;0.00;0.00;;;;;;;12.11;59.84;99837.09;5306126;26;20443;-89
2023/11/08 09:23:04;;;;;;;0.00;0.00;;;;;;;12.08;59.84;99818.09;5306708;26;20099;-90
2023/11/08 09:25:30;;;;;;;0.00;0.00;;;;;;;12.19;59.84;99831.56;5324329;26;20474;-90
2023/11/08 09:27:55;;;;;;;0.00;0.00;;;;;;;12.28;59.86;99842.50;5324946;26;20107;-90
2023/11/08 09:30:21;;;;;;;0.00;0.00;;;;;;;12.37;59.86;99851.78;5306199;26;20094;-89
2023/11/08 09:32:48;;;;;;;0.00;0.00;;;;;;;12.15;59.85;99854.31;5306104;26;20075;-90
2023/11/08 09:35:13;;;;;;;0.00;0.00;;;;;;;12.08;59.84;99828.53;5324474;26;20028;-89
2023/11/08 09:37:39;;;;;;;0.00;0.00;;;;;;;12.26;59.85;99851.31;5305767;26;20404;-89
2023/11/08 09:40:09;;;;;;;0.00;0.00;;;;;;;12.25;59.85;99854.81;5324531;26;20060;-89
2023/11/08 09:42:34;;;;;;;0.00;0.00;;;;;;;12.38;59.86;99861.31;5306748;26;20121;-89
2023/11/08 09:45:00;;;;;;;5.25;0.13;;;;;;;12.42;59.85;99860.28;5305643;26;20426;-91
2023/11/08 09:47:25;;;;;;;0.00;0.00;;;;;;;12.42;59.86;99856.81;5325024;26;20068;-90
2023/11/08 09:49:52;;;;;;;0.00;0.00;;;;;;;12.26;59.84;99866.97;5327276;26;20383;-90
2023/11/08 09:52:17;;;;;;;0.00;0.00;;;;;;;12.37;59.87;99856.16;5325741;26;20039;-90
2023/11/08 09:54:46;;;;;;;0.00;0.00;;;;;;;12.41;59.86;99863.78;5312308;26;20396;-90
2023/11/08 09:57:12;;;;;;;0.00;0.00;;;;;;;12.41;59.86;99860.34;5306453;26;20044;-89
2023/11/08 09:59:37;;;;;;;0.10;0.10;;;;;;;12.47;59.86;99860.94;5324439;26;20060;-90
2023/11/08 10:02:05;;;;;;;0.10;0.10;;;;;;;12.58;59.86;99855.34;5324546;26;20417;-89
2023/11/08 10:04:30;;;;;;;0.15;0.15;;;;;;;12.71;59.87;99853.09;5288620;26;20088;-89
2023/11/08 10:06:56;;;;;;;0.00;0.00;;;;;;;12.82;59.89;99857.00;5323770;26;27125;-88
2023/11/08 10:09:36;;;;;;;0.00;0.00;;;;;;;12.72;59.87;99870.44;5338036;26;25860;-89
2023/11/08 10:12:06;;;;;;;0.00;0.00;;;;;;;12.79;59.88;99858.88;5311121;26;20025;-89
2023/11/08 10:14:34;;;;;;;0.10;0.10;;;;;;;12.70;59.87;99857.44;5326458;26;20082;-89
2023/11/08 10:16:59;;;;;;;0.43;0.43;;;;;;;12.67;59.88;99862.81;5288955;26;20051;-89
2023/11/08 10:19:41;;;;;;;0.10;0.10;;;;;;;12.68;59.88;99854.06;5325236;26;20081;-90
2023/11/08 10:22:20;;;;;;;0.00;0.00;;;;;;;12.66;59.87;99858.50;5288158;26;20717;-89
2023/11/08 10:25:12;;;;;;;0.10;0.10;;;;;;;12.69;59.88;99845.31;5287897;26;20075;-90
2023/11/08 10:27:37;;;;;;;0.00;0.00;;;;;;;12.75;59.88;99841.59;5323131;26;20062;-89
2023/11/08 10:30:20;;;;;;;0.00;0.00;;;;;;;12.69;59.88;99853.12;5339789;26;20085;-89
2023/11/08 10:32:45;;;;;;;0.10;0.10;;;;;;;12.80;59.88;99863.19;5287724;26;20701;-89
2023/11/08 10:35:21;;;;;;;0.00;0.00;;;;;;;12.97;59.88;99865.13;5324288;26;20048;-90
2023/11/08 10:37:48;;;;;;;1.80;0.28;;;;;;;13.04;59.90;99857.00;5288806;26;20115;-90
2023/11/08 10:40:14;;;;;;;0.00;0.00;;;;;;;13.21;59.90;99872.00;5306470;26;20044;-90
2023/11/08 10:42:41;;;;;;;0.00;0.00;;;;;;;13.12;59.90;99873.19;5306007;26;20025;-90
2023/11/08 10:45:07;;;;;;;0.00;0.00;;;;;;;13.29;59.91;99872.56;5306609;26;20056;-90
2023/11/08 10:47:34;;;;;;;0.03;0.03;;;;;;;13.31;59.91;99870.72;5306400;26;20052;-90
2023/11/08 10:49:59;;;;;;;0.13;0.13;;;;;;;13.46;59.92;99874.44;5306877;26;20090;-89
2023/11/08 10:52:25;;;;;;;1.65;1.08;;;;;;;13.35;59.91;99885.38;5305654;26;20060;-90
2023/11/08 10:54:51;;;;;;;0.00;0.00;;;;;;;13.34;59.92;99885.44;5325234;26;20107;-89
2023/11/08 10:57:16;;;;;;;0.45;0.17;;;;;;;13.52;59.92;99889.91;5288612;26;20405;-90
2023/11/08 10:59:42;;;;;;;0.00;0.00;;;;;;;13.63;59.92;99895.53;5287699;26;20460;-89
2023/11/08 11:02:24;;;;;;;0.00;0.00;;;;;;;13.69;59.93;99884.78;5324180;26;20053;-90
2023/11/08 11:04:52;;;;;;;0.00;0.00;;;;;;;13.31;59.91;99875.09;5325167;26;20024;-91
2023/11/08 11:07:18;;;;;;;0.00;0.00;;;;;;;13.26;59.90;99877.06;5287738;26;20068;-91
2023/11/08 11:09:43;;;;;;;0.00;0.00;;;;;;;13.29;59.91;99876.94;5305023;26;20075;-90
2023/11/08 11:12:11;;;;;;;0.00;0.00;;;;;;;13.41;59.91;99873.78;5306080;26;20095;-91
2023/11/08 11:14:44;;;;;;;0.00;0.00;;;;;;;13.57;59.92;99867.03;5306595;26;20086;-91
2023/11/08 11:17:21;;;;;;;0.00;0.00;;;;;;;13.60;59.93;99866.88;5308074;26;20056;-90
2023/11/08 11:19:47;;;;;;;0.00;0.00;;;;;;;13.58;59.93;99866.09;5344376;26;20106;-89
2023/11/08 11:22:15;;;;;;;0.00;0.00;;;;;;;13.60;59.92;99861.66;5325140;26;20458;-90
2023/11/08 11:24:42;;;;;;;0.00;0.00;;;;;;;13.67;59.93;99860.47;5300791;26;20064;-89
2023/11/08 11:27:26;;;;;;;0.00;0.00;;;;;;;13.83;59.94;99855.44;5309338;26;20075;-89
2023/11/08 11:30:22;;;;;;;0.00;0.00;;;;;;;13.65;59.94;99857.06;5308858;26;20614;-92